Time;durP1;ratioP1;P1;durP2;ratioP2;P2;SDS_P1;SDS_P2;PMS_P1;PMS_P2;Temp;Humidity;BMP_temperature;BMP_pressure;BME280_temperature;BME280_humidity;BME280_pressure;Samples;Min_cycle;Max_cycle;Signal;HPM_P1;HPM_P2
2021/01/31 00:00:51;;;;;;;80.10;49.28;;;204.80;2048.00;;;;;;5070250;28;20019;-71
2021/01/31 00:03:23;;;;;;;76.20;46.60;;;204.80;2022.40;;;;;;5070298;28;20526;-72
2021/01/31 00:05:51;;;;;;;72.82;43.60;;;204.80;2048.00;;;;;;5070203;28;20032;-71
2021/01/31 00:08:19;;;;;;;75.07;45.10;;;204.80;2048.00;;;;;;5070551;28;20032;-72
2021/01/31 00:10:44;;;;;;;64.35;39.45;;;204.80;2048.00;;;;;;5052397;28;20027;-71
2021/01/31 00:13:11;;;;;;;62.97;38.35;;;204.80;2048.00;;;;;;5070285;28;20024;-73
2021/01/31 00:15:43;;;;;;;60.35;37.15;;;204.80;2048.00;;;;;;5052264;28;20101;-71
2021/01/31 00:18:10;;;;;;;71.90;41.13;;;204.80;2022.40;;;;;;5070196;28;20099;-72
2021/01/31 00:20:37;;;;;;;76.90;41.20;;;204.80;2022.40;;;;;;5052606;28;20375;-73
2021/01/31 00:23:04;;;;;;;64.53;37.08;;;204.80;2022.40;;;;;;5052267;28;20557;-70
2021/01/31 00:25:30;;;;;;;67.28;38.35;;;204.80;2022.40;;;;;;5055464;28;20032;-71
2021/01/31 00:27:56;;;;;;;67.72;38.45;;;204.90;2022.40;;;;;;5074255;28;20035;-70
2021/01/31 00:30:30;;;;;;;52.80;32.55;;;204.90;2022.40;;;;;;5074019;28;20048;-70
2021/01/31 00:32:56;;;;;;;43.45;28.15;;;204.90;2022.40;;;;;;5074084;28;20033;-70
2021/01/31 00:35:24;;;;;;;45.80;28.85;;;205.50;2022.40;;;;;;5073929;28;20111;-71
2021/01/31 00:37:50;;;;;;;47.65;31.45;;;204.90;2022.40;;;;;;5055565;28;20040;-70
2021/01/31 00:40:16;;;;;;;46.40;30.58;;;204.90;2022.40;;;;;;5056176;28;20028;-70
2021/01/31 00:42:42;;;;;;;45.42;26.98;;;204.90;2022.40;;;;;;5055817;28;20040;-70
2021/01/31 00:45:12;;;;;;;37.70;24.85;;;204.90;2022.40;;;;;;5073902;28;20021;-70
2021/01/31 00:47:39;;;;;;;36.92;23.90;;;204.90;2022.40;;;;;;5073695;28;20028;-71
2021/01/31 00:50:05;;;;;;;36.33;23.95;;;204.90;2022.40;;;;;;5055723;28;20430;-70
2021/01/31 00:52:31;;;;;;;48.72;29.88;;;204.90;2022.40;;;;;;5073554;28;20028;-71
2021/01/31 00:54:58;;;;;;;47.85;31.48;;;204.90;2022.40;;;;;;5055528;28;20044;-71
2021/01/31 00:57:23;;;;;;;47.05;29.90;;;204.80;2022.40;;;;;;5073703;28;20425;-71
2021/01/31 00:59:49;;;;;;;40.97;27.52;;;204.80;2022.40;;;;;;5073528;28;20107;-72
2021/01/31 01:02:19;;;;;;;39.20;25.73;;;204.80;2022.40;;;;;;5073474;28;20399;-71
2021/01/31 01:04:46;;;;;;;45.38;28.65;;;204.80;2022.40;;;;;;5055618;28;20017;-71
2021/01/31 01:07:12;;;;;;;49.25;29.20;;;204.80;2022.40;;;;;;5073533;28;20025;-71
2021/01/31 01:09:38;;;;;;;42.55;28.48;;;204.80;2048.00;;;;;;5073248;28;20035;-71
2021/01/31 01:12:05;;;;;;;41.08;26.92;;;180.10;2048.00;;;;;;5055506;28;20028;-70
2021/01/31 01:14:31;;;;;;;37.30;25.63;;;180.10;2048.00;;;;;;5073229;28;20459;-73
2021/01/31 01:16:58;;;;;;;38.33;26.25;;;180.10;2048.00;;;;;;5055451;28;20107;-70
2021/01/31 01:19:24;;;;;;;38.45;25.30;;;180.10;2048.00;;;;;;5073357;28;20020;-72
2021/01/31 01:21:50;;;;;;;37.97;25.65;;;180.10;2048.00;;;;;;5054916;28;20040;-71
2021/01/31 01:24:16;;;;;;;37.63;24.60;;;180.10;2048.00;;;;;;5073303;28;20027;-71
2021/01/31 01:26:42;;;;;;;37.40;24.75;;;180.10;2048.00;;;;;;5055024;28;20123;-71
2021/01/31 01:29:08;;;;;;;42.30;28.52;;;180.10;2048.00;;;;;;5054507;28;20032;-71
2021/01/31 01:31:34;;;;;;;40.45;26.67;;;180.10;2048.00;;;;;;5072898;28;20025;-70
2021/01/31 01:33:59;;;;;;;41.90;28.50;;;180.10;2048.00;;;;;;5072875;28;20375;-71
2021/01/31 01:36:25;;;;;;;45.85;27.63;;;204.80;2048.00;;;;;;5053976;28;20064;-71
2021/01/31 01:38:51;;;;;;;42.33;26.90;;;205.30;2048.00;;;;;;5054930;28;20032;-70
2021/01/31 01:41:17;;;;;;;41.20;26.05;;;204.80;2048.00;;;;;;5072623;28;20033;-71
2021/01/31 01:43:42;;;;;;;39.70;25.60;;;180.10;2048.00;;;;;;5072818;28;20454;-71
2021/01/31 01:46:17;;;;;;;43.33;27.33;;;180.00;2048.00;;;;;;5072676;28;20024;-71
2021/01/31 01:48:48;;;;;;;42.70;26.88;;;180.10;2048.00;;;;;;5072743;28;20485;-71
2021/01/31 01:51:16;;;;;;;40.22;27.23;;;180.10;2048.00;;;;;;5072774;28;20107;-71
2021/01/31 01:53:43;;;;;;;39.58;26.20;;;180.00;2048.00;;;;;;5072690;28;20494;-70
2021/01/31 01:56:27;;;;;;;42.88;26.73;;;180.00;2048.00;;;;;;5072434;28;20024;-72
2021/01/31 01:58:56;;;;;;;39.90;25.30;;;180.10;2048.00;;;;;;5049726;28;20071;-72
2021/01/31 02:01:23;;;;;;;37.78;25.42;;;180.10;2048.00;;;;;;5072493;28;20035;-71
2021/01/31 02:03:54;;;;;;;40.60;26.38;;;180.10;2048.00;;;;;;5072201;28;20032;-71
2021/01/31 02:06:23;;;;;;;38.22;24.98;;;180.00;2048.00;;;;;;5072328;28;20033;-71
2021/01/31 02:08:50;;;;;;;38.03;25.45;;;180.00;2048.00;;;;;;5054336;28;20111;-71
2021/01/31 02:11:17;;;;;;;38.83;25.60;;;180.00;2048.00;;;;;;5072405;28;20471;-70
2021/01/31 02:13:49;;;;;;;42.47;26.48;;;180.00;2048.00;;;;;;5072248;28;20107;-71
2021/01/31 02:16:23;;;;;;;42.30;26.90;;;204.80;2048.00;;;;;;5072169;28;20012;-70
2021/01/31 02:19:06;;;;;;;43.50;25.52;;;180.00;2073.60;;;;;;5072033;28;20024;-71
2021/01/31 02:21:37;;;;;;;42.35;28.23;;;179.90;2073.60;;;;;;5071690;28;20136;-71
2021/01/31 02:24:06;;;;;;;44.13;29.77;;;179.80;2073.60;;;;;;5072096;28;20081;-71
2021/01/31 02:27:05;;;;;;;60.70;36.20;;;179.80;2073.60;;;;;;5072037;28;20024;-70
2021/01/31 02:29:43;;;;;;;58.85;34.60;;;179.70;2099.20;;;;;;5071869;28;20048;-71
2021/01/31 02:32:31;;;;;;;65.22;38.63;;;179.80;2099.20;;;;;;5071546;28;20028;-71
2021/01/31 02:35:12;;;;;;;74.53;40.58;;;179.80;2099.20;;;;;;5071850;28;20029;-71
2021/01/31 02:37:52;;;;;;;68.13;38.80;;;179.80;2099.20;;;;;;5071693;28;20027;-71
2021/01/31 02:40:37;;;;;;;76.45;40.38;;;179.80;2099.20;;;;;;5071539;28;20035;-71
2021/01/31 02:43:17;;;;;;;66.38;36.88;;;179.80;2099.20;;;;;;5071149;28;20044;-71
2021/01/31 02:45:47;;;;;;;59.97;35.28;;;179.80;2099.20;;;;;;5053836;28;20065;-71
2021/01/31 02:48:22;;;;;;;59.80;34.03;;;179.90;2073.60;;;;;;5052874;28;20061;-73
2021/01/31 02:50:56;;;;;;;54.90;34.38;;;179.90;2073.60;;;;;;5071378;28;20114;-72
2021/01/31 02:53:36;;;;;;;52.90;33.38;;;179.90;2073.60;;;;;;5071318;28;20025;-74
2021/01/31 02:56:07;;;;;;;53.17;31.77;;;179.80;2073.60;;;;;;5053711;28;20489;-71
2021/01/31 02:59:00;;;;;;;51.60;28.88;;;179.90;2073.60;;;;;;5071541;28;20371;-71
2021/01/31 03:01:34;;;;;;;41.45;26.67;;;179.80;2073.60;;;;;;5070634;28;20037;-72
2021/01/31 03:04:08;;;;;;;43.75;26.58;;;179.80;2073.60;;;;;;5071098;28;20033;-72
2021/01/31 03:06:42;;;;;;;39.65;25.27;;;179.70;2073.60;;;;;;5071297;28;20017;-72
2021/01/31 03:09:18;;;;;;;40.95;26.77;;;179.70;2073.60;;;;;;5052717;28;20024;-72
2021/01/31 03:12:11;;;;;;;46.58;27.83;;;179.80;2073.60;;;;;;5053203;28;20107;-72
2021/01/31 03:14:49;;;;;;;47.45;28.98;;;179.80;2073.60;;;;;;5052213;28;20442;-72
2021/01/31 03:17:39;;;;;;;39.40;24.13;;;179.70;2099.20;;;;;;5071077;28;20096;-71
2021/01/31 03:20:18;;;;;;;38.22;22.77;;;179.70;2073.60;;;;;;5071010;28;20078;-72
2021/01/31 03:22:48;;;;;;;31.67;20.63;;;179.80;2073.60;;;;;;5070686;28;20052;-70
2021/01/31 03:25:21;;;;;;;34.78;21.15;;;179.70;2073.60;;;;;;5052993;28;20028;-71
2021/01/31 03:27:47;;;;;;;31.58;20.92;;;179.70;2073.60;;;;;;5052420;28;20028;-71
2021/01/31 03:30:15;;;;;;;33.40;21.30;;;179.60;2073.60;;;;;;5052415;28;20025;-73
2021/01/31 03:32:53;;;;;;;32.92;22.42;;;179.60;2073.60;;;;;;5070734;28;20078;-70
2021/01/31 03:35:27;;;;;;;32.55;21.52;;;179.60;2073.60;;;;;;5070714;28;20442;-71
2021/01/31 03:38:16;;;;;;;40.45;24.95;;;179.70;2073.60;;;;;;5070798;28;20047;-72
2021/01/31 03:40:46;;;;;;;37.30;23.63;;;179.70;2073.60;;;;;;5070652;28;20031;-71
2021/01/31 03:43:12;;;;;;;31.38;22.15;;;179.70;2073.60;;;;;;5052180;28;20128;-72
2021/01/31 03:45:44;;;;;;;37.58;25.20;;;179.70;2073.60;;;;;;5070439;28;20095;-71
2021/01/31 03:48:14;;;;;;;39.03;24.23;;;179.70;2073.60;;;;;;5052390;28;20027;-70
2021/01/31 03:50:40;;;;;;;44.15;28.73;;;179.70;2073.60;;;;;;5052459;28;20031;-71
2021/01/31 03:53:07;;;;;;;45.15;29.27;;;179.70;2073.60;;;;;;5052639;28;20022;-72
2021/01/31 03:55:33;;;;;;;44.53;28.73;;;179.70;2073.60;;;;;;5070533;28;20028;-71
2021/01/31 03:58:05;;;;;;;39.78;25.98;;;179.70;2073.60;;;;;;5070470;28;20020;-71
2021/01/31 04:00:38;;;;;;;43.72;27.13;;;179.70;2073.60;;;;;;5069953;28;20094;-71
2021/01/31 04:03:09;;;;;;;37.63;24.33;;;179.70;2073.60;;;;;;5070375;28;20124;-72
2021/01/31 04:05:38;;;;;;;32.97;21.80;;;179.80;2073.60;;;;;;5070540;28;20021;-71
2021/01/31 04:08:07;;;;;;;34.33;22.42;;;179.80;2048.00;;;;;;5070487;28;20085;-71
2021/01/31 04:10:33;;;;;;;37.42;23.98;;;179.80;2073.60;;;;;;5052301;28;20111;-71
2021/01/31 04:13:00;;;;;;;32.90;21.65;;;179.80;2073.60;;;;;;5052348;28;20432;-72
2021/01/31 04:15:42;;;;;;;32.60;21.50;;;179.80;2073.60;;;;;;5070302;28;20028;-71
2021/01/31 04:18:09;;;;;;;41.63;25.17;;;179.70;2073.60;;;;;;5070350;28;20069;-72
2021/01/31 04:20:36;;;;;;;52.72;32.05;;;179.60;2073.60;;;;;;5070341;28;20102;-71
2021/01/31 04:23:02;;;;;;;43.20;27.08;;;179.60;2073.60;;;;;;5069805;28;20186;-71
2021/01/31 04:25:28;;;;;;;51.13;28.25;;;179.60;2073.60;;;;;;5070179;28;20017;-71
2021/01/31 04:27:54;;;;;;;40.08;25.15;;;179.60;2099.20;;;;;;5070115;28;20028;-71
2021/01/31 04:30:21;;;;;;;39.78;24.00;;;179.60;2099.20;;;;;;5069906;28;20017;-72
2021/01/31 04:32:46;;;;;;;32.83;21.90;;;179.60;2099.20;;;;;;5070208;28;20459;-73
2021/01/31 04:35:14;;;;;;;32.15;22.05;;;179.60;2099.20;;;;;;5070341;28;20091;-72
2021/01/31 04:37:39;;;;;;;33.00;21.85;;;179.60;2099.20;;;;;;5069999;28;20029;-72
2021/01/31 04:40:09;;;;;;;34.58;21.42;;;179.60;2099.20;;;;;;5070181;28;20533;-71
2021/01/31 04:42:35;;;;;;;31.55;20.60;;;179.60;2099.20;;;;;;5070005;28;20082;-71
2021/01/31 04:45:01;;;;;;;35.58;21.52;;;179.60;2099.20;;;;;;5051796;28;20040;-72
2021/01/31 04:47:33;;;;;;;34.53;22.98;;;179.60;2099.20;;;;;;5069941;28;20029;-72
2021/01/31 04:50:36;;;;;;;31.67;21.00;;;179.50;2099.20;;;;;;5051218;28;20032;-72
2021/01/31 04:53:05;;;;;;;29.70;19.45;;;179.60;2099.20;;;;;;5051878;28;20025;-72
2021/01/31 04:56:09;;;;;;;26.65;17.52;;;179.60;2099.20;;;;;;5051364;28;20059;-72
2021/01/31 04:58:43;;;;;;;27.13;18.73;;;179.70;2099.20;;;;;;5069863;28;20020;-73
2021/01/31 05:01:18;;;;;;;28.42;18.58;;;179.60;2099.20;;;;;;5051559;28;20039;-72
2021/01/31 05:03:59;;;;;;;30.08;18.92;;;179.60;2099.20;;;;;;5051557;28;20044;-72
2021/01/31 05:06:27;;;;;;;42.67;28.25;;;179.60;2099.20;;;;;;5052020;28;20028;-72
2021/01/31 05:08:53;;;;;;;38.22;21.65;;;179.60;2099.20;;;;;;5069909;28;20024;-72
2021/01/31 05:11:51;;;;;;;28.90;19.13;;;179.60;2099.20;;;;;;5071000;28;20021;-71
2021/01/31 05:14:47;;;;;;;30.85;19.17;;;179.50;2124.80;;;;;;5055113;28;20020;-72
2021/01/31 05:17:16;;;;;;;28.83;19.35;;;179.60;2124.80;;;;;;5073342;28;20027;-71
2021/01/31 05:19:41;;;;;;;35.08;18.88;;;179.60;2124.80;;;;;;5073076;28;20025;-72
2021/01/31 05:22:10;;;;;;;32.15;19.00;;;179.60;2099.20;;;;;;5054959;28;20059;-73
2021/01/31 05:25:05;;;;;;;35.42;20.65;;;179.60;2099.20;;;;;;5055143;28;20486;-71
2021/01/31 05:27:34;;;;;;;29.95;19.70;;;179.60;2124.80;;;;;;5073159;28;20425;-71
2021/01/31 05:30:00;;;;;;;49.67;29.73;;;179.70;2124.80;;;;;;5072868;28;20023;-72
2021/01/31 05:32:26;;;;;;;52.28;27.48;;;179.60;2124.80;;;;;;5055007;28;20025;-71
2021/01/31 05:34:57;;;;;;;57.90;33.80;;;179.70;2124.80;;;;;;5073028;28;20040;-72
2021/01/31 05:37:24;;;;;;;;;;;179.60;2124.80;;;;;;5055551;28;20017;-71
2021/01/31 05:40:06;;;;;;;55.42;29.98;;;179.50;2124.80;;;;;;5072804;28;19997;-72
2021/01/31 05:42:35;;;;;;;50.35;33.92;;;179.50;2124.80;;;;;;5072688;28;20063;-71
2021/01/31 05:45:05;;;;;;;48.72;31.83;;;179.50;2150.40;;;;;;5054676;28;20315;-72
2021/01/31 05:47:42;;;;;;;47.00;30.67;;;179.50;2124.80;;;;;;5072673;28;20071;-71
2021/01/31 05:50:20;;;;;;;56.72;35.60;;;179.50;2150.40;;;;;;5054465;28;20020;-72
2021/01/31 05:52:46;;;;;;;43.33;28.42;;;179.50;2124.80;;;;;;5072610;28;20441;-72
2021/01/31 05:55:41;;;;;;;33.70;22.05;;;179.50;2124.80;;;;;;5072365;28;20028;-72
2021/01/31 05:58:22;;;;;;;52.95;33.08;;;179.60;2124.80;;;;;;5010726;28;20116;-72
2021/01/31 06:01:04;;;;;;;62.53;36.63;;;179.40;2150.40;;;;;;5010599;28;20037;-71
2021/01/31 06:03:30;;;;;;;45.38;28.15;;;179.40;2176.00;;;;;;4993879;28;20046;-71
2021/01/31 06:06:23;;;;;;;40.72;26.85;;;179.30;2176.00;;;;;;5010730;28;20034;-71
2021/01/31 06:08:52;;;;;;;38.50;24.73;;;179.30;2176.00;;;;;;5010384;28;20030;-71
2021/01/31 06:11:23;;;;;;;27.60;18.77;;;179.20;2201.60;;;;;;5010436;28;20030;-71
2021/01/31 06:14:00;;;;;;;;;;;179.20;2201.60;;;;;;5010733;28;20022;-71
2021/01/31 06:16:27;;;;;;;24.67;19.40;;;179.20;2201.60;;;;;;4994071;28;19905;-71
2021/01/31 06:19:04;;;;;;;26.20;19.08;;;179.20;2227.20;;;;;;5010467;28;20484;-71
2021/01/31 06:21:44;;;;;;;30.63;20.23;;;179.30;2227.20;;;;;;5009661;28;20165;-71
2021/01/31 06:24:23;;;;;;;31.10;21.83;;;179.30;2227.20;;;;;;5010192;28;20508;-71
2021/01/31 06:26:50;;;;;;;32.33;22.05;;;179.30;2227.20;;;;;;5010157;28;20033;-71
2021/01/31 06:29:36;;;;;;;40.70;25.70;;;179.40;2227.20;;;;;;5010292;28;20030;-71
2021/01/31 06:32:13;;;;;;;37.10;24.52;;;179.40;2227.20;;;;;;5009990;28;20033;-71
2021/01/31 06:34:52;;;;;;;33.80;24.15;;;179.40;2227.20;;;;;;5044871;28;20040;-72
2021/01/31 06:37:51;;;;;;;119.53;74.35;;;179.30;2227.20;;;;;;5071597;28;20025;-71
2021/01/31 06:40:26;;;;;;;75.38;53.47;;;179.40;2227.20;;;;;;5071455;28;20063;-72
2021/01/31 06:43:00;;;;;;;50.88;35.83;;;179.30;2252.80;;;;;;5071393;28;20036;-71
2021/01/31 06:45:34;;;;;;;55.83;40.75;;;179.30;2252.80;;;;;;5071714;28;20025;-71
2021/01/31 06:48:09;;;;;;;78.15;58.42;;;179.40;2252.80;;;;;;5053536;28;20040;-71
2021/01/31 06:51:07;;;;;;;64.22;45.92;;;179.40;2252.80;;;;;;5071680;28;20036;-71
2021/01/31 06:53:32;;;;;;;207.57;180.40;;;179.40;2252.80;;;;;;5071528;28;20023;-71
2021/01/31 06:56:07;;;;;;;114.32;95.25;;;179.40;2252.80;;;;;;5071270;28;20021;-71
2021/01/31 06:58:46;;;;;;;90.78;71.32;;;179.50;2252.80;;;;;;5053129;28;20037;-71
2021/01/31 07:01:28;;;;;;;76.05;57.53;;;179.40;2252.80;;;;;;5070994;28;20027;-71
2021/01/31 07:04:03;;;;;;;64.57;46.67;;;179.40;2252.80;;;;;;5053266;28;20033;-71
2021/01/31 07:07:12;;;;;;;73.97;56.75;;;179.40;2252.80;;;;;;5071300;28;20024;-71
2021/01/31 07:10:14;;;;;;;66.95;49.15;;;179.40;2252.80;;;;;;5070955;28;20528;-71
2021/01/31 07:12:49;;;;;;;;;;;179.40;2252.80;;;;;;5071454;28;20077;-72
2021/01/31 07:15:17;;;;;;;68.95;47.42;;;179.40;2252.80;;;;;;5071188;28;20001;-71
2021/01/31 07:17:58;;;;;;;79.85;62.10;;;179.40;2252.80;;;;;;5053117;28;20016;-71
2021/01/31 07:20:32;;;;;;;78.80;56.47;;;179.40;2252.80;;;;;;5071085;28;20077;-72
2021/01/31 07:23:05;;;;;;;67.28;48.35;;;179.40;2252.80;;;;;;5049425;28;20059;-71
2021/01/31 07:25:37;;;;;;;101.22;84.38;;;179.40;2252.80;;;;;;5049543;28;20533;-70
2021/01/31 07:28:09;;;;;;;66.05;48.45;;;179.30;2252.80;;;;;;5050991;28;20025;-71
2021/01/31 07:30:53;;;;;;;70.47;54.08;;;179.40;2252.80;;;;;;5050701;28;20025;-72
2021/01/31 07:33:24;;;;;;;74.00;55.80;;;179.30;2252.80;;;;;;5050199;28;20037;-71
2021/01/31 07:35:55;;;;;;;;;;;179.40;2252.80;;;;;;5050667;28;20021;-70
2021/01/31 07:38:34;;;;;;;63.55;46.95;;;179.30;2252.80;;;;;;5050630;28;19908;-71
2021/01/31 07:41:01;;;;;;;60.55;46.33;;;179.20;2252.80;;;;;;5050412;28;20094;-66
2021/01/31 07:43:30;;;;;;;69.53;49.35;;;179.20;2252.80;;;;;;5049483;28;20115;-66
2021/01/31 07:46:09;;;;;;;54.10;44.17;;;179.20;2252.80;;;;;;5050671;28;20063;-65
2021/01/31 07:48:44;;;;;;;61.97;46.30;;;179.20;2252.80;;;;;;5050798;28;20353;-66
2021/01/31 07:51:19;;;;;;;69.10;52.30;;;179.30;2252.80;;;;;;5050369;28;20021;-66
2021/01/31 07:53:45;;;;;;;67.20;52.28;;;179.20;2252.80;;;;;;5042965;28;20017;-66
2021/01/31 07:56:32;;;;;;;81.38;57.30;;;179.20;2252.80;;;;;;5037324;28;20069;-65
2021/01/31 07:58:57;;;;;;;90.75;64.00;;;179.20;2252.80;;;;;;5034630;28;20029;-65
2021/01/31 08:01:41;;;;;;;77.47;53.47;;;179.20;2252.80;;;;;;5040395;28;20075;-65
2021/01/31 08:04:16;;;;;;;75.03;52.60;;;179.20;2252.80;;;;;;5034715;28;20033;-68
2021/01/31 08:07:01;;;;;;;58.92;44.40;;;179.20;2252.80;;;;;;5038215;28;20027;-66
2021/01/31 08:09:27;;;;;;;70.43;51.38;;;179.30;2252.80;;;;;;5037051;28;20534;-69
2021/01/31 08:11:55;;;;;;;83.43;66.45;;;179.30;2252.80;;;;;;5039318;28;20065;-65
2021/01/31 08:14:58;;;;;;;84.30;62.45;;;179.30;2252.80;;;;;;5040277;28;20017;-67
2021/01/31 08:17:53;;;;;;;86.45;61.65;;;179.20;2252.80;;;;;;5035558;28;20092;-65
2021/01/31 08:20:27;;;;;;;90.00;66.63;;;179.30;2252.80;;;;;;5024614;28;20037;-67
2021/01/31 08:23:24;;;;;;;77.80;55.28;;;179.20;2252.80;;;;;;5037618;28;20128;-65
2021/01/31 08:26:01;;;;;;;76.43;53.88;;;179.20;2252.80;;;;;;5036759;28;20473;-65
2021/01/31 08:28:29;;;;;;;71.68;49.78;;;179.30;2252.80;;;;;;5036559;28;20109;-68
2021/01/31 08:31:01;;;;;;;76.25;54.35;;;154.50;2252.80;;;;;;5037499;28;20060;-66
2021/01/31 08:33:28;;;;;;;101.90;70.78;;;179.20;2252.80;;;;;;5035921;28;20034;-71
2021/01/31 08:36:04;;;;;;;88.82;61.42;;;154.50;2252.80;;;;;;5038735;28;20088;-69
2021/01/31 08:38:32;;;;;;;98.35;68.60;;;179.20;2252.80;;;;;;5037203;28;20476;-66
2021/01/31 08:43:35;;;;;;;120.47;81.80;;;179.20;2252.80;;;;;;5036299;28;20389;-68
2021/01/31 08:46:13;;;;;;;129.27;84.80;;;154.50;2252.80;;;;;;5037561;28;20476;-66
2021/01/31 08:48:39;;;;;;;123.45;81.78;;;179.20;2252.80;;;;;;5041665;28;20028;-67
2021/01/31 08:51:13;;;;;;;155.00;98.10;;;154.50;2252.80;;;;;;5044119;28;20016;-66
2021/01/31 08:53:39;;;;;;;141.68;91.13;;;154.50;2252.80;;;;;;5042310;28;20075;-66
2021/01/31 08:56:26;;;;;;;132.18;88.75;;;179.20;2252.80;;;;;;5037809;28;20025;-67
2021/01/31 08:58:52;;;;;;;132.05;88.72;;;179.20;2252.80;;;;;;5040298;28;20029;-69
2021/01/31 09:01:18;;;;;;;117.85;75.50;;;179.20;2252.80;;;;;;5041409;28;20545;-67
2021/01/31 09:03:45;;;;;;;102.95;70.13;;;179.30;2252.80;;;;;;5043843;28;20116;-66
2021/01/31 09:06:11;;;;;;;85.32;60.35;;;179.40;2252.80;;;;;;5040626;28;20034;-68
2021/01/31 09:08:39;;;;;;;92.72;67.10;;;179.50;2252.80;;;;;;5040190;28;20043;-67
2021/01/31 09:11:06;;;;;;;87.85;63.17;;;179.50;2252.80;;;;;;5039301;28;20468;-72
2021/01/31 09:13:34;;;;;;;114.68;80.10;;;179.80;2252.80;;;;;;5044208;28;20041;-68
2021/01/31 09:16:24;;;;;;;156.57;103.82;;;179.60;2252.80;;;;;;5041000;28;20029;-69
2021/01/31 09:19:10;;;;;;;109.35;81.22;;;179.60;2252.80;;;;;;5038617;28;20476;-72
2021/01/31 09:21:36;;;;;;;107.38;84.75;;;179.70;2252.80;;;;;;5039747;28;20059;-72
2021/01/31 09:24:07;;;;;;;274.00;184.65;;;179.70;2252.80;;;;;;5040589;28;20014;-73
2021/01/31 09:26:33;;;;;;;262.30;198.77;;;179.70;2252.80;;;;;;5040800;28;20029;-69
2021/01/31 09:28:59;;;;;;;282.42;216.38;;;179.70;2252.80;;;;;;5043198;28;20033;-73
2021/01/31 09:31:30;;;;;;;200.95;160.70;;;179.80;2252.80;;;;;;5038212;28;20022;-73
2021/01/31 09:34:01;;;;;;;158.23;116.85;;;179.80;2252.80;;;;;;5041747;28;20029;-72
2021/01/31 09:36:30;;;;;;;153.55;104.25;;;179.90;2252.80;;;;;;5038975;28;20459;-68
2021/01/31 09:38:58;;;;;;;118.53;87.63;;;179.80;2252.80;;;;;;5039871;28;20061;-74
2021/01/31 09:41:26;;;;;;;107.60;79.00;;;179.80;2252.80;;;;;;5043027;28;20491;-73
2021/01/31 09:43:56;;;;;;;109.13;78.60;;;179.80;2252.80;;;;;;5040763;28;20507;-70
2021/01/31 09:46:26;;;;;;;101.97;74.30;;;179.90;2252.80;;;;;;5040284;28;20482;-74
2021/01/31 09:49:23;;;;;;;100.55;72.68;;;179.90;2252.80;;;;;;5041961;28;20033;-72
2021/01/31 09:51:49;;;;;;;217.90;139.82;;;179.90;2252.80;;;;;;5038461;28;20052;-67
2021/01/31 09:54:20;;;;;;;248.18;159.43;;;179.90;2252.80;;;;;;5041037;28;20452;-67
2021/01/31 09:57:02;;;;;;;197.52;130.98;;;179.90;2252.80;;;;;;5038049;28;20427;-73
2021/01/31 09:59:32;;;;;;;295.08;229.88;;;180.00;2252.80;;;;;;5038777;28;20018;-74
2021/01/31 10:02:12;;;;;;;188.43;126.30;;;179.90;2252.80;;;;;;5040231;28;20396;-67
2021/01/31 10:04:40;;;;;;;137.77;89.17;;;180.00;2252.80;;;;;;5041490;28;20049;-69
2021/01/31 10:07:12;;;;;;;115.47;77.30;;;180.00;2252.80;;;;;;5038565;28;20017;-67
2021/01/31 10:09:43;;;;;;;139.50;84.70;;;180.10;2252.80;;;;;;5040434;28;20031;-67
2021/01/31 10:12:29;;;;;;;126.70;80.20;;;180.10;2252.80;;;;;;5037670;28;20022;-67
2021/01/31 10:15:05;;;;;;;359.55;159.95;;;180.00;2252.80;;;;;;5040551;28;20025;-68
2021/01/31 10:17:33;;;;;;;268.42;115.75;;;180.10;2252.80;;;;;;5036865;28;20075;-67
2021/01/31 10:20:28;;;;;;;499.02;203.00;;;204.80;2252.80;;;;;;5040416;28;20078;-67
2021/01/31 10:22:56;;;;;;;128.77;72.70;;;204.80;2252.80;;;;;;5037598;28;20046;-66
2021/01/31 10:25:23;;;;;;;262.83;125.20;;;204.80;2252.80;;;;;;5039010;28;20063;-70
2021/01/31 10:27:49;;;;;;;472.02;239.70;;;204.80;2252.80;;;;;;5040260;28;20116;-71
2021/01/31 10:30:37;;;;;;;272.85;138.77;;;204.90;2252.80;;;;;;5039980;28;20033;-70
2021/01/31 10:33:04;;;;;;;127.50;77.97;;;204.90;2252.80;;;;;;5041707;28;20032;-69
2021/01/31 10:35:33;;;;;;;74.18;52.80;;;205.00;2252.80;;;;;;5038880;28;20036;-69
2021/01/31 10:38:20;;;;;;;77.38;57.90;;;205.00;2252.80;;;;;;5040002;28;20013;-68
2021/01/31 10:40:45;;;;;;;78.90;57.85;;;205.00;2252.80;;;;;;5041581;28;20120;-68
2021/01/31 10:43:11;;;;;;;88.68;61.15;;;205.00;2252.80;;;;;;5051538;28;20116;-69
2021/01/31 10:45:37;;;;;;;77.05;56.83;;;205.00;2252.80;;;;;;5051214;28;20025;-69
2021/01/31 10:48:03;;;;;;;72.07;52.55;;;205.10;2252.80;;;;;;5050183;28;20033;-69
2021/01/31 10:50:29;;;;;;;72.88;53.10;;;205.10;2252.80;;;;;;5051516;28;20029;-70
2021/01/31 10:52:55;;;;;;;92.85;67.35;;;205.10;2252.80;;;;;;5051795;28;20025;-65
2021/01/31 10:55:20;;;;;;;98.70;72.75;;;205.20;2252.80;;;;;;5051372;28;20021;-70
2021/01/31 10:57:46;;;;;;;138.45;97.63;;;205.20;2252.80;;;;;;5051632;28;20486;-69
2021/01/31 11:00:13;;;;;;;133.45;97.32;;;205.20;2252.80;;;;;;5051327;28;20021;-80
2021/01/31 11:02:38;;;;;;;118.55;82.07;;;205.20;2252.80;;;;;;5049757;28;20499;-77
2021/01/31 11:05:06;;;;;;;149.88;102.07;;;205.20;2252.80;;;;;;5038233;28;20045;-72
2021/01/31 11:07:32;;;;;;;137.07;91.57;;;205.20;2252.80;;;;;;5039576;28;20372;-72
2021/01/31 11:09:58;;;;;;;141.88;89.00;;;205.30;2252.80;;;;;;5040102;28;20074;-76
2021/01/31 11:12:24;;;;;;;187.68;115.45;;;205.30;2252.80;;;;;;5040283;28;20100;-71
2021/01/31 11:14:50;;;;;;;300.65;174.35;;;205.30;2252.80;;;;;;5038664;28;20432;-73
2021/01/31 11:17:15;;;;;;;230.05;136.25;;;205.30;2252.80;;;;;;5041067;28;20029;-72
2021/01/31 11:19:41;;;;;;;197.20;123.28;;;205.30;2252.80;;;;;;5038898;28;20526;-75
2021/01/31 11:22:07;;;;;;;142.02;90.15;;;205.30;2252.80;;;;;;5038174;28;20041;-72
2021/01/31 11:24:33;;;;;;;132.30;85.63;;;205.30;2252.80;;;;;;5041102;28;20463;-78
2021/01/31 11:26:59;;;;;;;142.40;90.95;;;205.40;2252.80;;;;;;5039426;28;20036;-73
2021/01/31 11:29:25;;;;;;;140.98;89.65;;;205.30;2252.80;;;;;;5040512;28;20021;-72
2021/01/31 11:31:51;;;;;;;128.35;81.13;;;205.30;2252.80;;;;;;5038652;28;20013;-67
2021/01/31 11:34:17;;;;;;;184.65;117.00;;;205.30;2252.80;;;;;;5040592;28;20029;-74
2021/01/31 11:36:43;;;;;;;177.63;109.93;;;205.40;2252.80;;;;;;5038850;28;20380;-75
2021/01/31 11:39:09;;;;;;;218.10;138.02;;;205.30;2252.80;;;;;;5038898;28;20021;-73
2021/01/31 11:41:36;;;;;;;145.35;96.35;;;205.30;2252.80;;;;;;5039139;28;20472;-74
2021/01/31 11:44:04;;;;;;;142.80;97.05;;;205.30;2252.80;;;;;;5038192;28;20037;-71
2021/01/31 11:46:29;;;;;;;118.90;80.13;;;205.30;2252.80;;;;;;5037521;28;20452;-69
2021/01/31 11:48:56;;;;;;;104.35;67.40;;;205.30;2252.80;;;;;;5035545;28;20040;-73
2021/01/31 11:51:21;;;;;;;88.80;60.35;;;205.30;2252.80;;;;;;5039698;28;20426;-70
2021/01/31 11:53:47;;;;;;;68.25;46.15;;;205.30;2252.80;;;;;;5040289;28;20021;-69
2021/01/31 11:56:13;;;;;;;138.50;91.00;;;205.30;2252.80;;;;;;5036988;28;20034;-70
2021/01/31 11:58:38;;;;;;;144.40;93.75;;;205.30;2252.80;;;;;;5040170;28;20029;-73
2021/01/31 12:01:04;;;;;;;166.88;118.55;;;205.30;2252.80;;;;;;5039777;28;20088;-74
2021/01/31 12:03:30;;;;;;;136.68;99.60;;;205.20;2252.80;;;;;;5038040;28;20041;-74
2021/01/31 12:05:56;;;;;;;202.23;138.10;;;205.20;2252.80;;;;;;5040581;28;20521;-75
2021/01/31 12:08:22;;;;;;;192.25;122.88;;;205.20;2252.80;;;;;;5037978;28;20486;-74
2021/01/31 12:10:48;;;;;;;293.98;172.52;;;205.20;2252.80;;;;;;5038351;28;20096;-73
2021/01/31 12:13:13;;;;;;;285.08;188.75;;;205.20;2252.80;;;;;;5040496;28;20085;-75
2021/01/31 12:15:39;;;;;;;213.02;133.38;;;205.20;2252.80;;;;;;5038772;28;20025;-70
2021/01/31 12:18:05;;;;;;;178.60;108.72;;;205.20;2252.80;;;;;;5037381;28;20033;-73
2021/01/31 12:20:31;;;;;;;180.15;109.85;;;205.10;2252.80;;;;;;5040523;28;20037;-72
2021/01/31 12:22:57;;;;;;;153.52;94.80;;;205.10;2252.80;;;;;;5060060;28;20097;-70